sensor_id;sensor_type;location;lat;lon;timestamp;pressure;altitude;pressure_sealevel;temperature;humidity
47738;BME280;33502;47.182;27.506;2022-12-13T00:01:14;99532.28;;;0.62;100.00
47738;BME280;33502;47.182;27.506;2022-12-13T00:03:42;99539.34;;;0.53;100.00
47738;BME280;33502;47.182;27.506;2022-12-13T00:06:09;99549.00;;;0.45;100.00
47738;BME280;33502;47.182;27.506;2022-12-13T00:08:36;99542.19;;;0.36;100.00
47738;BME280;33502;47.182;27.506;2022-12-13T00:11:04;99540.59;;;0.26;100.00
47738;BME280;33502;47.182;27.506;2022-12-13T00:13:31;99544.13;;;0.21;100.00
47738;BME280;33502;47.182;27.506;2022-12-13T00:16:00;99539.88;;;0.15;100.00
47738;BME280;33502;47.182;27.506;2022-12-13T00:18:26;99539.84;;;0.18;100.00
47738;BME280;33502;47.182;27.506;2022-12-13T00:20:53;99542.44;;;0.19;100.00
47738;BME280;33502;47.182;27.506;2022-12-13T00:23:19;99539.84;;;0.16;100.00
47738;BME280;33502;47.182;27.506;2022-12-13T00:25:45;99547.66;;;0.16;100.00
47738;BME280;33502;47.182;27.506;2022-12-13T00:28:11;99547.69;;;0.15;100.00
47738;BME280;33502;47.182;27.506;2022-12-13T00:30:37;99549.50;;;0.08;100.00
47738;BME280;33502;47.182;27.506;2022-12-13T00:33:05;99546.94;;;0.04;100.00
47738;BME280;33502;47.182;27.506;2022-12-13T00:35:32;99555.63;;;0.04;100.00
47738;BME280;33502;47.182;27.506;2022-12-13T00:37:58;99550.47;;;-0.02;100.00
47738;BME280;33502;47.182;27.506;2022-12-13T00:40:24;99544.44;;;-0.04;100.00
47738;BME280;33502;47.182;27.506;2022-12-13T00:42:49;99555.66;;;-0.01;100.00
47738;BME280;33502;47.182;27.506;2022-12-13T00:45:15;99551.34;;;0.00;100.00
47738;BME280;33502;47.182;27.506;2022-12-13T00:47:41;99544.41;;;-0.01;100.00
47738;BME280;33502;47.182;27.506;2022-12-13T00:50:07;99544.47;;;-0.06;100.00
47738;BME280;33502;47.182;27.506;2022-12-13T00:52:33;99534.94;;;-0.08;100.00
47738;BME280;33502;47.182;27.506;2022-12-13T00:54:59;99531.47;;;-0.07;100.00
47738;BME280;33502;47.182;27.506;2022-12-13T00:57:25;99544.56;;;-0.13;100.00
47738;BME280;33502;47.182;27.506;2022-12-13T00:59:51;99542.00;;;-0.16;100.00
47738;BME280;33502;47.182;27.506;2022-12-13T01:02:17;99542.06;;;-0.23;100.00
47738;BME280;33502;47.182;27.506;2022-12-13T01:04:42;99537.88;;;-0.34;100.00
47738;BME280;33502;47.182;27.506;2022-12-13T01:07:08;99550.06;;;-0.43;100.00
47738;BME280;33502;47.182;27.506;2022-12-13T01:09:34;99548.47;;;-0.53;100.00
47738;BME280;33502;47.182;27.506;2022-12-13T01:12:02;99538.13;;;-0.59;100.00
47738;BME280;33502;47.182;27.506;2022-12-13T01:14:29;99540.81;;;-0.71;100.00
47738;BME280;33502;47.182;27.506;2022-12-13T01:16:55;99540.03;;;-0.78;100.00
47738;BME280;33502;47.182;27.506;2022-12-13T01:19:25;99539.19;;;-0.82;100.00
47738;BME280;33502;47.182;27.506;2022-12-13T01:22:02;99534.00;;;-0.85;100.00
47738;BME280;33502;47.182;27.506;2022-12-13T01:24:29;99535.75;;;-0.85;100.00
47738;BME280;33502;47.182;27.506;2022-12-13T01:26:55;99531.47;;;-0.89;100.00
47738;BME280;33502;47.182;27.506;2022-12-13T01:29:22;99537.53;;;-0.90;100.00
47738;BME280;33502;47.182;27.506;2022-12-13T01:31:48;99542.78;;;-0.93;100.00
47738;BME280;33502;47.182;27.506;2022-12-13T01:34:17;99543.69;;;-0.99;100.00
47738;BME280;33502;47.182;27.506;2022-12-13T01:36:44;99553.19;;;-1.00;100.00
47738;BME280;33502;47.182;27.506;2022-12-13T01:39:12;99563.56;;;-0.96;100.00
47738;BME280;33502;47.182;27.506;2022-12-13T01:41:39;99569.63;;;-0.93;100.00
47738;BME280;33502;47.182;27.506;2022-12-13T01:44:06;99576.50;;;-0.87;100.00
47738;BME280;33502;47.182;27.506;2022-12-13T01:46:51;99575.59;;;-0.80;100.00
47738;BME280;33502;47.182;27.506;2022-12-13T01:49:17;99581.63;;;-0.80;100.00
47738;BME280;33502;47.182;27.506;2022-12-13T01:54:15;99581.69;;;-0.86;100.00
47738;BME280;33502;47.182;27.506;2022-12-13T01:56:50;99585.22;;;-0.94;100.00
47738;BME280;33502;47.182;27.506;2022-12-13T01:59:17;99592.16;;;-0.98;100.00
47738;BME280;33502;47.182;27.506;2022-12-13T02:01:46;99596.56;;;-1.09;100.00
47738;BME280;33502;47.182;27.506;2022-12-13T02:04:15;99600.13;;;-1.16;100.00
47738;BME280;33502;47.182;27.506;2022-12-13T02:06:43;99600.16;;;-1.24;100.00
47738;BME280;33502;47.182;27.506;2022-12-13T02:09:10;99603.72;;;-1.38;100.00
47738;BME280;33502;47.182;27.506;2022-12-13T02:11:41;99600.28;;;-1.46;100.00
47738;BME280;33502;47.182;27.506;2022-12-13T02:14:08;99613.34;;;-1.56;100.00
47738;BME280;33502;47.182;27.506;2022-12-13T02:19:48;99605.63;;;-1.73;100.00
47738;BME280;33502;47.182;27.506;2022-12-13T02:27:46;99615.16;;;-1.80;100.00
47738;BME280;33502;47.182;27.506;2022-12-13T02:30:20;99617.78;;;-1.88;100.00
47738;BME280;33502;47.182;27.506;2022-12-13T02:35:38;99611.75;;;-2.01;100.00
47738;BME280;33502;47.182;27.506;2022-12-13T02:41:30;99619.56;;;-2.14;100.00
47738;BME280;33502;47.182;27.506;2022-12-13T02:46:47;99621.34;;;-2.20;100.00
47738;BME280;33502;47.182;27.506;2022-12-13T02:49:18;99627.41;;;-2.27;100.00
47738;BME280;33502;47.182;27.506;2022-12-13T02:51:45;99625.69;;;-2.40;100.00
47738;BME280;33502;47.182;27.506;2022-12-13T02:54:12;99630.91;;;-2.54;100.00
47738;BME280;33502;47.182;27.506;2022-12-13T02:56:38;99628.28;;;-2.66;100.00
47738;BME280;33502;47.182;27.506;2022-12-13T02:59:10;99625.72;;;-2.79;100.00
47738;BME280;33502;47.182;27.506;2022-12-13T03:02:02;99624.84;;;-2.90;100.00
47738;BME280;33502;47.182;27.506;2022-12-13T03:07:45;99622.22;;;-3.16;100.00
47738;BME280;33502;47.182;27.506;2022-12-13T03:10:31;99628.25;;;-3.23;100.00
47738;BME280;33502;47.182;27.506;2022-12-13T03:13:02;99622.19;;;-3.31;100.00
47738;BME280;33502;47.182;27.506;2022-12-13T03:18:21;99627.31;;;-3.50;100.00
47738;BME280;33502;47.182;27.506;2022-12-13T03:20:56;99626.41;;;-3.61;100.00
47738;BME280;33502;47.182;27.506;2022-12-13T03:23:22;99618.63;;;-3.74;100.00
47738;BME280;33502;47.182;27.506;2022-12-13T03:28:54;99628.00;;;-3.94;100.00
47738;BME280;33502;47.182;27.506;2022-12-13T03:31:20;99621.06;;;-4.01;100.00
47738;BME280;33502;47.182;27.506;2022-12-13T03:33:46;99621.91;;;-4.05;100.00
47738;BME280;33502;47.182;27.506;2022-12-13T03:36:12;99627.09;;;-4.07;100.00
47738;BME280;33502;47.182;27.506;2022-12-13T03:38:38;99625.38;;;-4.03;100.00
47738;BME280;33502;47.182;27.506;2022-12-13T03:41:08;99627.97;;;-4.00;100.00
47738;BME280;33502;47.182;27.506;2022-12-13T03:43:35;99623.72;;;-3.95;100.00
47738;BME280;33502;47.182;27.506;2022-12-13T03:46:01;99621.16;;;-3.84;100.00
47738;BME280;33502;47.182;27.506;2022-12-13T03:48:27;99619.47;;;-3.78;100.00
47738;BME280;33502;47.182;27.506;2022-12-13T03:50:53;99618.63;;;-3.72;100.00
47738;BME280;33502;47.182;27.506;2022-12-13T03:53:20;99618.63;;;-3.67;100.00
47738;BME280;33502;47.182;27.506;2022-12-13T03:55:46;99611.78;;;-3.61;100.00
47738;BME280;33502;47.182;27.506;2022-12-13T03:58:12;99625.56;;;-3.62;100.00
47738;BME280;33502;47.182;27.506;2022-12-13T04:00:38;99630.72;;;-3.63;100.00
47738;BME280;33502;47.182;27.506;2022-12-13T04:03:04;99633.31;;;-3.68;100.00
47738;BME280;33502;47.182;27.506;2022-12-13T04:05:30;99628.94;;;-3.75;100.00
47738;BME280;33502;47.182;27.506;2022-12-13T04:07:56;99627.16;;;-3.88;100.00
47738;BME280;33502;47.182;27.506;2022-12-13T04:10:22;99626.25;;;-3.98;100.00
47738;BME280;33502;47.182;27.506;2022-12-13T04:12:48;99626.22;;;-4.06;100.00
47738;BME280;33502;47.182;27.506;2022-12-13T04:15:33;99624.44;;;-4.18;100.00
47738;BME280;33502;47.182;27.506;2022-12-13T04:17:58;99619.22;;;-4.27;100.00
47738;BME280;33502;47.182;27.506;2022-12-13T04:20:24;99634.66;;;-4.36;100.00
47738;BME280;33502;47.182;27.506;2022-12-13T04:22:50;99631.22;;;-4.41;100.00
47738;BME280;33502;47.182;27.506;2022-12-13T04:25:16;99626.84;;;-4.45;100.00
47738;BME280;33502;47.182;27.506;2022-12-13T04:27:43;99630.31;;;-4.45;100.00
47738;BME280;33502;47.182;27.506;2022-12-13T04:30:08;99631.22;;;-4.41;100.00
47738;BME280;33502;47.182;27.506;2022-12-13T04:32:34;99632.06;;;-4.41;100.00
47738;BME280;33502;47.182;27.506;2022-12-13T04:35:00;99625.16;;;-4.45;100.00
47738;BME280;33502;47.182;27.506;2022-12-13T04:37:26;99626.78;;;-4.53;100.00
47738;BME280;33502;47.182;27.506;2022-12-13T04:39:51;99620.72;;;-4.60;100.00
47738;BME280;33502;47.182;27.506;2022-12-13T04:42:17;99631.88;;;-4.67;100.00
47738;BME280;33502;47.182;27.506;2022-12-13T04:44:43;99618.94;;;-4.70;100.00
47738;BME280;33502;47.182;27.506;2022-12-13T04:47:08;99626.66;;;-4.73;100.00
47738;BME280;33502;47.182;27.506;2022-12-13T04:49:35;99629.25;;;-4.73;100.00
47738;BME280;33502;47.182;27.506;2022-12-13T04:52:01;99631.81;;;-4.75;100.00
47738;BME280;33502;47.182;27.506;2022-12-13T04:54:29;99625.72;;;-4.80;100.00
47738;BME280;33502;47.182;27.506;2022-12-13T04:56:57;99630.03;;;-4.83;100.00
47738;BME280;33502;47.182;27.506;2022-12-13T04:59:23;99628.25;;;-4.90;100.00
47738;BME280;33502;47.182;27.506;2022-12-13T05:01:48;99631.66;;;-4.92;100.00
47738;BME280;33502;47.182;27.506;2022-12-13T05:04:14;99638.81;;;-4.61;100.00
47738;BME280;33502;47.182;27.506;2022-12-13T05:06:40;99631.88;;;-4.65;100.00
47738;BME280;33502;47.182;27.506;2022-12-13T05:09:05;99627.44;;;-4.82;100.00
47738;BME280;33502;47.182;27.506;2022-12-13T05:11:32;99636.75;;;-5.01;100.00
47738;BME280;33502;47.182;27.506;2022-12-13T05:13:58;99636.69;;;-5.10;100.00
47738;BME280;33502;47.182;27.506;2022-12-13T05:16:24;99637.47;;;-5.16;100.00
47738;BME280;33502;47.182;27.506;2022-12-13T05:18:50;99637.44;;;-5.19;100.00
47738;BME280;33502;47.182;27.506;2022-12-13T05:21:16;99636.53;;;-5.22;100.00
47738;BME280;33502;47.182;27.506;2022-12-13T05:23:42;99636.50;;;-5.28;100.00
47738;BME280;33502;47.182;27.506;2022-12-13T05:26:07;99645.94;;;-5.27;100.00
47738;BME280;33502;47.182;27.506;2022-12-13T05:28:33;99642.50;;;-5.28;100.00
47738;BME280;33502;47.182;27.506;2022-12-13T05:31:07;99648.53;;;-5.29;100.00
47738;BME280;33502;47.182;27.506;2022-12-13T05:33:33;99645.06;;;-5.29;100.00
47738;BME280;33502;47.182;27.506;2022-12-13T05:35:59;99651.09;;;-5.31;100.00
47738;BME280;33502;47.182;27.506;2022-12-13T05:38:25;99654.53;;;-5.30;100.00
47738;BME280;33502;47.182;27.506;2022-12-13T05:40:50;99655.38;;;-5.29;100.00
47738;BME280;33502;47.182;27.506;2022-12-13T05:43:16;99655.41;;;-5.28;100.00
47738;BME280;33502;47.182;27.506;2022-12-13T05:45:42;99657.19;;;-5.22;100.00
47738;BME280;33502;47.182;27.506;2022-12-13T05:48:08;99662.38;;;-5.21;100.00
47738;BME280;33502;47.182;27.506;2022-12-13T05:50:35;99663.28;;;-5.17;100.00
47738;BME280;33502;47.182;27.506;2022-12-13T05:53:03;99663.38;;;-5.05;100.00
47738;BME280;33502;47.182;27.506;2022-12-13T05:55:29;99656.59;;;-4.95;100.00
47738;BME280;33502;47.182;27.506;2022-12-13T05:57:56;99665.34;;;-4.78;100.00
47738;BME280;33502;47.182;27.506;2022-12-13T06:00:22;99676.72;;;-4.57;100.00
47738;BME280;33502;47.182;27.506;2022-12-13T06:02:48;99673.41;;;-4.41;100.00
47738;BME280;33502;47.182;27.506;2022-12-13T06:05:14;99666.84;;;-3.91;100.00
47738;BME280;33502;47.182;27.506;2022-12-13T06:07:40;99662.84;;;-2.93;100.00
47738;BME280;33502;47.182;27.506;2022-12-13T06:10:06;99662.78;;;-1.98;100.00
47738;BME280;33502;47.182;27.506;2022-12-13T06:12:36;99665.03;;;-1.13;100.00
47738;BME280;33502;47.182;27.506;2022-12-13T06:15:03;99665.56;;;-0.62;100.00
47738;BME280;33502;47.182;27.506;2022-12-13T06:17:34;99664.44;;;-0.32;100.00
47738;BME280;33502;47.182;27.506;2022-12-13T06:20:02;99661.84;;;-0.36;100.00
47738;BME280;33502;47.182;27.506;2022-12-13T06:22:29;99670.56;;;-0.39;100.00
47738;BME280;33502;47.182;27.506;2022-12-13T06:24:54;99666.13;;;-0.26;100.00
47738;BME280;33502;47.182;27.506;2022-12-13T06:27:20;99673.19;;;-0.42;100.00
47738;BME280;33502;47.182;27.506;2022-12-13T06:29:46;99674.06;;;-0.42;100.00
47738;BME280;33502;47.182;27.506;2022-12-13T06:32:12;99677.44;;;-0.33;100.00
47738;BME280;33502;47.182;27.506;2022-12-13T06:34:37;99669.31;;;0.02;100.00
47738;BME280;33502;47.182;27.506;2022-12-13T06:37:05;99676.53;;;0.54;100.00
47738;BME280;33502;47.182;27.506;2022-12-13T06:39:32;99684.03;;;0.79;100.00
47738;BME280;33502;47.182;27.506;2022-12-13T06:41:58;99679.16;;;1.18;100.00
47738;BME280;33502;47.182;27.506;2022-12-13T06:44:24;99686.09;;;1.73;94.28
47738;BME280;33502;47.182;27.506;2022-12-13T06:46:49;99683.28;;;2.34;93.56
47738;BME280;33502;47.182;27.506;2022-12-13T06:49:15;99692.97;;;2.72;91.18
47738;BME280;33502;47.182;27.506;2022-12-13T06:51:41;99694.84;;;1.72;93.80
47738;BME280;33502;47.182;27.506;2022-12-13T06:54:07;99699.47;;;0.94;95.88
47738;BME280;33502;47.182;27.506;2022-12-13T06:56:32;99697.44;;;1.74;100.00
47738;BME280;33502;47.182;27.506;2022-12-13T06:58:58;99700.59;;;3.22;92.36
47738;BME280;33502;47.182;27.506;2022-12-13T07:01:25;99690.56;;;4.44;82.31
47738;BME280;33502;47.182;27.506;2022-12-13T07:03:55;99686.47;;;5.78;77.16
47738;BME280;33502;47.182;27.506;2022-12-13T07:06:23;99685.84;;;6.49;70.40
47738;BME280;33502;47.182;27.506;2022-12-13T07:08:54;99689.81;;;5.28;67.54
47738;BME280;33502;47.182;27.506;2022-12-13T07:11:22;99692.44;;;4.39;72.90
47738;BME280;33502;47.182;27.506;2022-12-13T07:13:49;99699.69;;;2.83;76.73
47738;BME280;33502;47.182;27.506;2022-12-13T07:16:15;99706.41;;;1.56;83.88
47738;BME280;33502;47.182;27.506;2022-12-13T07:18:41;99703.22;;;0.75;90.80
47738;BME280;33502;47.182;27.506;2022-12-13T07:21:08;99710.09;;;1.95;91.71
47738;BME280;33502;47.182;27.506;2022-12-13T07:23:35;99703.91;;;4.02;82.28
47738;BME280;33502;47.182;27.506;2022-12-13T07:26:02;99707.59;;;5.48;72.35
47738;BME280;33502;47.182;27.506;2022-12-13T07:28:31;99709.56;;;5.97;66.56
47738;BME280;33502;47.182;27.506;2022-12-13T07:31:02;99709.53;;;6.72;64.62
47738;BME280;33502;47.182;27.506;2022-12-13T07:33:28;99706.63;;;7.25;62.01
47738;BME280;33502;47.182;27.506;2022-12-13T07:36:01;99711.13;;;7.68;59.65
47738;BME280;33502;47.182;27.506;2022-12-13T07:38:28;99714.34;;;7.96;57.87
47738;BME280;33502;47.182;27.506;2022-12-13T07:40:56;99708.28;;;8.56;56.78
47738;BME280;33502;47.182;27.506;2022-12-13T07:43:23;99715.22;;;8.79;54.57
47738;BME280;33502;47.182;27.506;2022-12-13T07:45:50;99731.34;;;8.92;55.23
47738;BME280;33502;47.182;27.506;2022-12-13T07:48:16;99733.56;;;9.39;53.70
47738;BME280;33502;47.182;27.506;2022-12-13T07:50:42;99738.94;;;9.18;51.76
47738;BME280;33502;47.182;27.506;2022-12-13T07:53:08;99741.47;;;8.82;52.16
47738;BME280;33502;47.182;27.506;2022-12-13T07:55:35;99746.66;;;8.01;54.29
47738;BME280;33502;47.182;27.506;2022-12-13T07:58:12;99748.88;;;6.52;57.47
47738;BME280;33502;47.182;27.506;2022-12-13T08:00:41;99753.88;;;4.93;62.12
47738;BME280;33502;47.182;27.506;2022-12-13T08:03:07;99762.63;;;3.93;66.35
47738;BME280;33502;47.182;27.506;2022-12-13T08:05:34;99765.34;;;3.51;69.52
47738;BME280;33502;47.182;27.506;2022-12-13T08:08:02;99765.72;;;3.73;67.83
47738;BME280;33502;47.182;27.506;2022-12-13T08:10:28;99764.19;;;4.99;65.60
47738;BME280;33502;47.182;27.506;2022-12-13T08:12:55;99769.69;;;5.78;61.15
47738;BME280;33502;47.182;27.506;2022-12-13T08:15:20;99767.88;;;6.35;59.22
47738;BME280;33502;47.182;27.506;2022-12-13T08:17:47;99768.28;;;6.47;60.02
47738;BME280;33502;47.182;27.506;2022-12-13T08:20:13;99763.09;;;6.46;59.31
47738;BME280;33502;47.182;27.506;2022-12-13T08:22:38;99766.09;;;6.60;57.74
47738;BME280;33502;47.182;27.506;2022-12-13T08:25:05;99775.63;;;6.38;57.93
47738;BME280;33502;47.182;27.506;2022-12-13T08:27:31;99769.50;;;6.37;58.03
47738;BME280;33502;47.182;27.506;2022-12-13T08:29:57;99769.41;;;5.87;58.74
47738;BME280;33502;47.182;27.506;2022-12-13T08:32:23;99758.75;;;5.63;60.94
47738;BME280;33502;47.182;27.506;2022-12-13T08:34:49;99770.50;;;5.52;60.93
47738;BME280;33502;47.182;27.506;2022-12-13T08:37:15;99763.44;;;5.25;61.23
47738;BME280;33502;47.182;27.506;2022-12-13T08:39:41;99769.00;;;5.15;63.08
47738;BME280;33502;47.182;27.506;2022-12-13T08:42:12;99765.69;;;5.38;61.65
47738;BME280;33502;47.182;27.506;2022-12-13T08:44:38;99773.44;;;5.13;62.63
47738;BME280;33502;47.182;27.506;2022-12-13T08:47:04;99771.25;;;5.27;63.67
47738;BME280;33502;47.182;27.506;2022-12-13T08:49:30;99775.88;;;5.48;63.40
47738;BME280;33502;47.182;27.506;2022-12-13T08:51:55;99775.56;;;5.86;61.89
47738;BME280;33502;47.182;27.506;2022-12-13T08:54:21;99770.91;;;5.96;61.33
47738;BME280;33502;47.182;27.506;2022-12-13T08:56:47;99763.19;;;5.61;61.57
47738;BME280;33502;47.182;27.506;2022-12-13T08:59:13;99756.81;;;5.42;63.98
47738;BME280;33502;47.182;27.506;2022-12-13T09:01:39;99762.81;;;5.16;64.66
47738;BME280;33502;47.182;27.506;2022-12-13T09:04:05;99763.56;;;4.91;66.23
47738;BME280;33502;47.182;27.506;2022-12-13T09:06:30;99763.03;;;4.78;68.10
47738;BME280;33502;47.182;27.506;2022-12-13T09:08:56;99766.81;;;4.68;69.89
47738;BME280;33502;47.182;27.506;2022-12-13T09:11:22;99771.13;;;4.38;71.02
47738;BME280;33502;47.182;27.506;2022-12-13T09:13:48;99781.31;;;3.78;73.39
47738;BME280;33502;47.182;27.506;2022-12-13T09:16:18;99779.16;;;3.60;76.20
47738;BME280;33502;47.182;27.506;2022-12-13T09:18:46;99768.63;;;3.22;78.42
47738;BME280;33502;47.182;27.506;2022-12-13T09:21:14;99784.34;;;2.79;81.27
47738;BME280;33502;47.182;27.506;2022-12-13T09:23:40;99785.97;;;2.38;86.01
47738;BME280;33502;47.182;27.506;2022-12-13T09:26:06;99775.81;;;2.21;89.31
47738;BME280;33502;47.182;27.506;2022-12-13T09:28:34;99771.03;;;1.94;91.88
47738;BME280;33502;47.182;27.506;2022-12-13T09:33:37;99778.22;;;1.20;99.22
47738;BME280;33502;47.182;27.506;2022-12-13T09:36:05;99783.84;;;0.89;100.00
47738;BME280;33502;47.182;27.506;2022-12-13T09:38:34;99789.41;;;0.55;100.00
47738;BME280;33502;47.182;27.506;2022-12-13T09:43:56;99799.22;;;0.28;100.00
47738;BME280;33502;47.182;27.506;2022-12-13T09:46:29;99800.19;;;0.21;100.00
47738;BME280;33502;47.182;27.506;2022-12-13T09:48:57;99791.50;;;0.19;100.00
47738;BME280;33502;47.182;27.506;2022-12-13T09:51:24;99796.69;;;0.19;100.00
47738;BME280;33502;47.182;27.506;2022-12-13T09:53:52;99794.00;;;0.31;100.00
47738;BME280;33502;47.182;27.506;2022-12-13T09:56:20;99796.59;;;0.33;100.00
47738;BME280;33502;47.182;27.506;2022-12-13T09:58:48;99796.59;;;0.33;100.00
47738;BME280;33502;47.182;27.506;2022-12-13T10:01:15;99793.22;;;0.23;100.00
47738;BME280;33502;47.182;27.506;2022-12-13T10:03:43;99801.78;;;0.34;100.00
47738;BME280;33502;47.182;27.506;2022-12-13T10:06:17;99799.22;;;0.28;100.00
47738;BME280;33502;47.182;27.506;2022-12-13T10:08:51;99799.28;;;0.21;100.00
47738;BME280;33502;47.182;27.506;2022-12-13T10:11:19;99808.97;;;0.08;100.00
47738;BME280;33502;47.182;27.506;2022-12-13T10:16:26;99796.06;;;-0.06;100.00
47738;BME280;33502;47.182;27.506;2022-12-13T10:18:54;99791.69;;;-0.03;100.00
47738;BME280;33502;47.182;27.506;2022-12-13T10:21:49;99796.84;;;0.04;100.00
47738;BME280;33502;47.182;27.506;2022-12-13T10:24:24;99795.00;;;0.13;100.00
47738;BME280;33502;47.182;27.506;2022-12-13T10:26:52;99786.34;;;0.14;100.00
47738;BME280;33502;47.182;27.506;2022-12-13T10:29:19;99785.50;;;0.09;100.00
47738;BME280;33502;47.182;27.506;2022-12-13T10:31:47;99786.28;;;0.22;100.00
47738;BME280;33502;47.182;27.506;2022-12-13T10:36:45;99789.50;;;0.49;100.00
47738;BME280;33502;47.182;27.506;2022-12-13T10:39:17;99784.94;;;0.71;100.00
47738;BME280;33502;47.182;27.506;2022-12-13T10:41:43;99791.38;;;1.12;100.00
47738;BME280;33502;47.182;27.506;2022-12-13T10:44:21;99788.59;;;1.24;100.00
47738;BME280;33502;47.182;27.506;2022-12-13T10:47:31;99779.88;;;1.28;100.00
47738;BME280;33502;47.182;27.506;2022-12-13T10:49:56;99784.91;;;1.39;100.00
47738;BME280;33502;47.182;27.506;2022-12-13T10:52:37;99782.47;;;1.28;100.00
47738;BME280;33502;47.182;27.506;2022-12-13T10:55:06;99787.69;;;1.28;100.00
47738;BME280;33502;47.182;27.506;2022-12-13T10:57:51;99789.78;;;1.00;100.00
47738;BME280;33502;47.182;27.506;2022-12-13T11:02:56;99787.44;;;0.78;100.00
47738;BME280;33502;47.182;27.506;2022-12-13T11:05:25;99790.16;;;0.69;100.00
47738;BME280;33502;47.182;27.506;2022-12-13T11:07:52;99791.91;;;0.66;100.00
47738;BME280;33502;47.182;27.506;2022-12-13T11:10:23;99785.88;;;0.64;100.00
47738;BME280;33502;47.182;27.506;2022-12-13T11:12:54;99786.78;;;0.60;100.00
47738;BME280;33502;47.182;27.506;2022-12-13T11:15:24;99783.34;;;0.54;100.00
47738;BME280;33502;47.182;27.506;2022-12-13T11:17:53;99792.00;;;0.56;100.00
47738;BME280;33502;47.182;27.506;2022-12-13T11:20:23;99791.09;;;0.62;100.00
47738;BME280;33502;47.182;27.506;2022-12-13T11:23:05;99783.34;;;0.54;100.00
47738;BME280;33502;47.182;27.506;2022-12-13T11:25:38;99785.94;;;0.56;100.00
47738;BME280;33502;47.182;27.506;2022-12-13T11:31:35;99785.88;;;0.64;100.00
47738;BME280;33502;47.182;27.506;2022-12-13T11:44:20;99799.13;;;0.41;100.00
47738;BME280;33502;47.182;27.506;2022-12-13T11:46:54;99790.41;;;0.43;100.00
47738;BME280;33502;47.182;27.506;2022-12-13T11:52:23;99787.31;;;0.88;100.00
47738;BME280;33502;47.182;27.506;2022-12-13T11:55:14;99789.78;;;0.98;100.00
47738;BME280;33502;47.182;27.506;2022-12-13T11:57:59;99803.47;;;1.19;100.00
47738;BME280;33502;47.182;27.506;2022-12-13T12:00:33;99795.53;;;1.27;100.00
47738;BME280;33502;47.182;27.506;2022-12-13T12:03:15;99796.47;;;1.21;100.00
47738;BME280;33502;47.182;27.506;2022-12-13T12:05:49;99803.47;;;1.19;100.00
47738;BME280;33502;47.182;27.506;2022-12-13T12:08:22;99800.09;;;1.11;100.00
47738;BME280;33502;47.182;27.506;2022-12-13T12:11:08;99805.31;;;1.11;100.00
47738;BME280;33502;47.182;27.506;2022-12-13T12:13:50;99809.53;;;1.18;100.00
47738;BME280;33502;47.182;27.506;2022-12-13T12:16:39;99803.75;;;0.93;100.00
47738;BME280;33502;47.182;27.506;2022-12-13T12:19:11;99822.13;;;0.82;100.00
47738;BME280;33502;47.182;27.506;2022-12-13T12:22:07;99826.78;;;0.55;100.00
47738;BME280;33502;47.182;27.506;2022-12-13T12:28:07;99825.81;;;0.61;100.00
47738;BME280;33502;47.182;27.506;2022-12-13T12:43:35;99843.50;;;0.28;100.00
47738;BME280;33502;47.182;27.506;2022-12-13T12:51:37;99860.81;;;0.32;100.00
47738;BME280;33502;47.182;27.506;2022-12-13T12:57:28;99862.56;;;0.30;100.00
47738;BME280;33502;47.182;27.506;2022-12-13T13:00:14;99869.47;;;0.36;100.00
47738;BME280;33502;47.182;27.506;2022-12-13T13:03:22;99871.22;;;0.34;100.00
47738;BME280;33502;47.182;27.506;2022-12-13T13:11:15;99880.97;;;0.12;100.00
47738;BME280;33502;47.182;27.506;2022-12-13T13:16:39;99890.50;;;0.13;100.00
47738;BME280;33502;47.182;27.506;2022-12-13T13:21:42;99896.50;;;0.23;100.00
47738;BME280;33502;47.182;27.506;2022-12-13T13:24:16;99892.22;;;0.15;100.00
47738;BME280;33502;47.182;27.506;2022-12-13T13:26:50;99899.13;;;0.18;100.00
47738;BME280;33502;47.182;27.506;2022-12-13T13:31:55;99896.53;;;0.19;100.00
47738;BME280;33502;47.182;27.506;2022-12-13T13:34:27;99893.03;;;0.21;100.00
47738;BME280;33502;47.182;27.506;2022-12-13T13:36:57;99894.78;;;0.22;100.00
47738;BME280;33502;47.182;27.506;2022-12-13T13:42:16;99905.25;;;0.12;100.00
47738;BME280;33502;47.182;27.506;2022-12-13T14:01:15;99927.94;;;-0.04;100.00
47738;BME280;33502;47.182;27.506;2022-12-13T14:24:14;99958.31;;;-0.12;100.00
47738;BME280;33502;47.182;27.506;2022-12-13T14:29:32;99966.16;;;-0.15;100.00
47738;BME280;33502;47.182;27.506;2022-12-13T14:31:59;99974.81;;;-0.13;100.00
47738;BME280;33502;47.182;27.506;2022-12-13T14:34:29;99971.38;;;-0.13;100.00
47738;BME280;33502;47.182;27.506;2022-12-13T14:37:04;99973.94;;;-0.12;100.00
47738;BME280;33502;47.182;27.506;2022-12-13T14:39:32;99980.03;;;-0.14;100.00
47738;BME280;33502;47.182;27.506;2022-12-13T14:42:01;99975.69;;;-0.14;100.00
47738;BME280;33502;47.182;27.506;2022-12-13T14:44:32;99985.28;;;-0.21;100.00
47738;BME280;33502;47.182;27.506;2022-12-13T14:47:01;99995.69;;;-0.24;100.00
47738;BME280;33502;47.182;27.506;2022-12-13T14:49:30;100000.03;;;-0.27;100.00
47738;BME280;33502;47.182;27.506;2022-12-13T14:52:01;99997.41;;;-0.29;100.00
47738;BME280;33502;47.182;27.506;2022-12-13T14:54:36;100000.88;;;-0.24;100.00
47738;BME280;33502;47.182;27.506;2022-12-13T14:57:14;100006.09;;;-0.22;100.00
47738;BME280;33502;47.182;27.506;2022-12-13T14:59:44;100008.69;;;-0.22;100.00
47738;BME280;33502;47.182;27.506;2022-12-13T15:02:15;100007.81;;;-0.24;100.00
47738;BME280;33502;47.182;27.506;2022-12-13T15:04:41;100013.88;;;-0.25;100.00
47738;BME280;33502;47.182;27.506;2022-12-13T15:07:25;100017.38;;;-0.31;100.00
47738;BME280;33502;47.182;27.506;2022-12-13T15:09:56;100012.19;;;-0.38;100.00
47738;BME280;33502;47.182;27.506;2022-12-13T15:12:22;100017.44;;;-0.42;100.00
47738;BME280;33502;47.182;27.506;2022-12-13T15:14:52;100019.16;;;-0.47;100.00
47738;BME280;33502;47.182;27.506;2022-12-13T15:17:32;100016.59;;;-0.54;100.00